Time;durP1;ratioP1;P1;durP2;ratioP2;P2;SDS_P1;SDS_P2;PMS_P1;PMS_P2;Temp;Humidity;BMP_temperature;BMP_pressure;BME280_temperature;BME280_humidity;BME280_pressure;Samples;Min_cycle;Max_cycle;Signal;HPM_P1;HPM_P2
2023/03/02 00:00:33;;;;;;;99.82;38.58;;;;;;;;;;6201401;23;20036;-96
2023/03/02 00:03:06;;;;;;;73.95;33.17;;;;;;;;;;6231967;23;20008;-96
2023/03/02 00:05:55;;;;;;;74.20;30.55;;;;;;;;;;6205728;23;20049;-96
2023/03/02 00:09:00;;;;;;;68.80;29.33;;;;;;;;;;6227220;23;20016;-96
2023/03/02 00:12:12;;;;;;;;;;;;;;;;;;;;;
2023/03/02 00:15:01;;;;;;;62.80;25.50;;;;;;;;;;6238129;23;20003;-95
2023/03/02 00:17:49;;;;;;;49.08;23.88;;;;;;;;;;6229386;23;20339;-95
2023/03/02 00:20:41;;;;;;;54.63;24.73;;;;;;;;;;6233445;23;20010;-96
2023/03/02 00:24:18;;;;;;;;;;;;;;;;;;;;;
2023/03/02 00:31:57;;;;;;;58.67;25.42;;;;;;;;;;6233219;23;20009;-96
2023/03/02 00:34:23;;;;;;;55.70;24.10;;;;;;;;;;6200024;23;20013;-96
2023/03/02 00:36:57;;;;;;;52.33;24.45;;;;;;;;;;6216352;23;20044;-96
2023/03/02 00:39:24;;;;;;;81.28;31.92;;;;;;;;;;6215913;23;20008;-95
2023/03/02 00:41:53;;;;;;;68.72;31.15;;;;;;;;;;6213412;23;19992;-96
2023/03/02 00:44:19;;;;;;;63.80;28.52;;;;;;;;;;6208200;23;20004;-95
2023/03/02 00:46:46;;;;;;;68.03;30.05;;;;;;;;;;6208911;23;20005;-96
2023/03/02 00:49:12;;;;;;;81.13;33.45;;;;;;;;;;6176779;23;20431;-96
2023/03/02 00:51:41;;;;;;;80.78;34.38;;;;;;;;;;6203649;23;20009;-96
2023/03/02 00:54:08;;;;;;;102.05;42.55;;;;;;;;;;6227584;23;20341;-96
2023/03/02 00:56:36;;;;;;;95.55;41.35;;;;;;;;;;6206979;23;20437;-96
2023/03/02 01:05:37;;;;;;;87.97;36.72;;;;;;;;;;6222359;23;20454;-96
2023/03/02 01:08:13;;;;;;;;;;;;;;;;;;;;;
2023/03/02 01:13:30;;;;;;;90.47;37.92;;;;;;;;;;6203096;23;20024;-96
2023/03/02 01:16:01;;;;;;;89.88;39.30;;;;;;;;;;6200828;23;20005;-96
2023/03/02 01:18:38;;;;;;;;;;;;;;;;;;;;;
2023/03/02 01:21:18;;;;;;;87.82;37.03;;;;;;;;;;6232791;23;20005;-96
2023/03/02 01:23:50;;;;;;;82.65;36.70;;;;;;;;;;6199223;23;20012;-96
2023/03/02 01:26:16;;;;;;;76.07;33.05;;;;;;;;;;6197597;23;20001;-96
2023/03/02 01:28:45;;;;;;;57.90;27.33;;;;;;;;;;6196234;23;20084;-96
2023/03/02 01:31:20;;;;;;;57.70;25.35;;;;;;;;;;6196942;23;20009;-96
2023/03/02 01:33:51;;;;;;;61.20;26.88;;;;;;;;;;6194756;23;20000;-96
2023/03/02 01:36:21;;;;;;;86.07;33.15;;;;;;;;;;6195165;23;20465;-96
2023/03/02 01:38:49;;;;;;;98.88;35.55;;;;;;;;;;6194721;23;20012;-96
2023/03/02 01:44:46;;;;;;;68.47;27.98;;;;;;;;;;6109458;23;19998;-96
2023/03/02 01:47:15;;;;;;;73.53;31.52;;;;;;;;;;6194449;23;20086;-96
2023/03/02 01:49:44;;;;;;;81.32;34.60;;;;;;;;;;6204493;23;20005;-96
2023/03/02 01:52:11;;;;;;;75.85;34.75;;;;;;;;;;6188103;23;20056;-96
2023/03/02 01:54:37;;;;;;;75.15;31.63;;;;;;;;;;6198107;23;20009;-96
2023/03/02 01:57:05;;;;;;;73.10;33.47;;;;;;;;;;6198867;23;20029;-96
2023/03/02 01:59:32;;;;;;;77.20;34.40;;;;;;;;;;6193719;23;20369;-96
2023/03/02 02:02:08;;;;;;;77.40;33.05;;;;;;;;;;6192202;23;20005;-96
2023/03/02 02:04:36;;;;;;;68.18;31.85;;;;;;;;;;6193962;23;20005;-96
2023/03/02 02:07:04;;;;;;;78.22;34.58;;;;;;;;;;6202228;23;20009;-96
2023/03/02 02:09:33;;;;;;;88.82;37.58;;;;;;;;;;6201811;23;20020;-96
2023/03/02 02:12:04;;;;;;;86.53;37.75;;;;;;;;;;6205148;23;20012;-96
2023/03/02 02:14:31;;;;;;;89.57;39.35;;;;;;;;;;6198884;23;20389;-96
2023/03/02 02:16:57;;;;;;;81.15;35.75;;;;;;;;;;6197308;23;20009;-96
2023/03/02 02:19:48;;;;;;;88.67;38.67;;;;;;;;;;6223715;23;20254;-96
2023/03/02 02:22:21;;;;;;;83.03;37.97;;;;;;;;;;6198169;23;20438;-95
2023/03/02 02:24:52;;;;;;;81.95;37.63;;;;;;;;;;6212416;23;20032;-96
2023/03/02 02:27:18;;;;;;;87.28;38.25;;;;;;;;;;6200446;23;20011;-96
2023/03/02 02:29:46;;;;;;;81.45;36.80;;;;;;;;;;6198708;23;20001;-96
2023/03/02 02:32:14;;;;;;;98.22;45.28;;;;;;;;;;6189163;23;20012;-94
2023/03/02 02:34:45;;;;;;;92.05;43.13;;;;;;;;;;6193958;23;20098;-95
2023/03/02 02:37:14;;;;;;;92.22;42.33;;;;;;;;;;6195256;23;20004;-96
2023/03/02 02:39:42;;;;;;;109.07;50.35;;;;;;;;;;6196655;23;20009;-95
2023/03/02 02:42:19;;;;;;;105.70;47.17;;;;;;;;;;6196269;23;20009;-96
2023/03/02 02:44:51;;;;;;;101.75;46.78;;;;;;;;;;6199175;23;20028;-96
2023/03/02 02:48:03;;;;;;;;;;;;;;;;;;;;;
2023/03/02 02:50:38;;;;;;;99.53;44.58;;;;;;;;;;6159900;23;20040;-96
2023/03/02 02:56:21;;;;;;;85.32;40.33;;;;;;;;;;6147903;23;20016;-96
2023/03/02 02:58:52;;;;;;;85.50;38.50;;;;;;;;;;6183349;23;20028;-96
2023/03/02 03:01:35;;;;;;;;;;;;;;;;;;;;;
2023/03/02 03:04:04;;;;;;;68.15;33.17;;;;;;;;;;6224387;23;20036;-95
2023/03/02 03:06:37;;;;;;;80.80;37.35;;;;;;;;;;6195856;23;20059;-96
2023/03/02 03:09:07;;;;;;;79.80;37.22;;;;;;;;;;6193626;23;20004;-96
2023/03/02 03:11:36;;;;;;;71.25;33.08;;;;;;;;;;6228048;23;20440;-96
2023/03/02 03:14:12;;;;;;;85.68;39.22;;;;;;;;;;6169835;23;20008;-96
2023/03/02 03:16:42;;;;;;;82.13;37.97;;;;;;;;;;6222308;23;20430;-96
2023/03/02 03:19:42;;;;;;;82.03;37.25;;;;;;;;;;6205787;23;20005;-96
2023/03/02 03:22:17;;;;;;;73.90;33.05;;;;;;;;;;6216091;23;19996;-96
2023/03/02 03:24:46;;;;;;;64.35;29.70;;;;;;;;;;6240905;23;19989;-96
2023/03/02 03:27:13;;;;;;;72.38;32.25;;;;;;;;;;6206517;23;20059;-96
2023/03/02 03:29:42;;;;;;;63.72;29.27;;;;;;;;;;6207341;23;20005;-96
2023/03/02 03:32:09;;;;;;;61.70;28.00;;;;;;;;;;6198066;23;20393;-96
2023/03/02 03:34:39;;;;;;;67.20;27.33;;;;;;;;;;6224929;23;20060;-96
2023/03/02 03:37:10;;;;;;;57.40;26.50;;;;;;;;;;6222200;23;20008;-95
2023/03/02 03:39:39;;;;;;;55.70;24.73;;;;;;;;;;6226716;23;20039;-96
2023/03/02 03:42:05;;;;;;;75.32;32.47;;;;;;;;;;6175899;23;20004;-96
2023/03/02 03:51:29;;;;;;;55.92;26.60;;;;;;;;;;6222019;23;20084;-96
2023/03/02 03:54:06;;;;;;;63.45;28.85;;;;;;;;;;6218946;23;20004;-96
2023/03/02 03:56:34;;;;;;;67.03;30.75;;;;;;;;;;6194117;23;20009;-96
2023/03/02 03:59:07;;;;;;;72.70;32.22;;;;;;;;;;6221126;23;20019;-96
2023/03/02 04:01:40;;;;;;;73.57;31.48;;;;;;;;;;6195636;23;20005;-96
2023/03/02 04:04:12;;;;;;;67.38;29.95;;;;;;;;;;6230194;22;20012;-96
2023/03/02 04:06:38;;;;;;;61.90;29.67;;;;;;;;;;6208016;23;20005;-96
2023/03/02 04:09:08;;;;;;;63.55;29.33;;;;;;;;;;6201460;23;20005;-96
2023/03/02 04:11:37;;;;;;;66.63;30.00;;;;;;;;;;6201038;23;20414;-96
2023/03/02 04:14:09;;;;;;;55.58;26.45;;;;;;;;;;6200012;23;20015;-96
2023/03/02 04:16:38;;;;;;;60.83;28.08;;;;;;;;;;6198799;23;20016;-96
2023/03/02 04:19:08;;;;;;;62.17;27.05;;;;;;;;;;6227286;23;20047;-96
2023/03/02 04:21:36;;;;;;;58.75;28.25;;;;;;;;;;6202451;23;20077;-96
2023/03/02 04:24:10;;;;;;;55.05;24.42;;;;;;;;;;6204818;23;20041;-96
2023/03/02 04:26:39;;;;;;;50.45;24.92;;;;;;;;;;6174595;23;20015;-96
2023/03/02 04:29:22;;;;;;;;;;;;;;;;;;;;;
2023/03/02 04:31:54;;;;;;;58.33;25.73;;;;;;;;;;6234216;23;20015;-95
2023/03/02 04:34:25;;;;;;;50.65;25.08;;;;;;;;;;6184688;23;20008;-96
2023/03/02 04:36:52;;;;;;;55.47;25.73;;;;;;;;;;6224516;23;20005;-96
2023/03/02 04:39:20;;;;;;;58.50;27.55;;;;;;;;;;6229904;23;20013;-96
2023/03/02 04:42:14;;;;;;;60.75;27.30;;;;;;;;;;6228389;23;20080;-96
2023/03/02 04:44:40;;;;;;;55.25;27.10;;;;;;;;;;6175942;23;20013;-96
2023/03/02 04:47:13;;;;;;;65.93;28.77;;;;;;;;;;6221946;23;20000;-96
2023/03/02 04:49:53;;;;;;;65.93;27.65;;;;;;;;;;6195850;23;20084;-96
2023/03/02 04:52:25;;;;;;;56.92;26.70;;;;;;;;;;6199903;23;20064;-96
2023/03/02 04:54:53;;;;;;;68.47;29.05;;;;;;;;;;6222167;23;20448;-96
2023/03/02 04:57:25;;;;;;;68.00;29.45;;;;;;;;;;6222945;23;20023;-96
2023/03/02 04:59:52;;;;;;;61.05;25.65;;;;;;;;;;6189008;23;20060;-96
2023/03/02 05:02:20;;;;;;;61.28;26.67;;;;;;;;;;6225954;23;20043;-95
2023/03/02 05:04:48;;;;;;;62.33;25.83;;;;;;;;;;6188955;23;20450;-96
2023/03/02 05:07:15;;;;;;;59.80;26.25;;;;;;;;;;6189179;23;20004;-96
2023/03/02 05:09:59;;;;;;;56.53;25.58;;;;;;;;;;6162612;23;20020;-96
2023/03/02 05:13:01;;;;;;;51.05;23.50;;;;;;;;;;6194340;22;20027;-96
2023/03/02 05:15:46;;;;;;;56.88;23.50;;;;;;;;;;6198134;23;20005;-96
2023/03/02 05:18:13;;;;;;;53.15;24.58;;;;;;;;;;6184509;22;20028;-96
2023/03/02 05:20:42;;;;;;;51.17;24.55;;;;;;;;;;6227249;23;20004;-96
2023/03/02 05:23:22;;;;;;;55.20;23.77;;;;;;;;;;6224699;23;20458;-95
2023/03/02 05:25:50;;;;;;;62.60;27.17;;;;;;;;;;6225633;23;20035;-96
2023/03/02 05:28:16;;;;;;;66.35;26.92;;;;;;;;;;6222863;23;20036;-96
2023/03/02 05:30:43;;;;;;;59.55;26.25;;;;;;;;;;6249794;23;20072;-95
2023/03/02 05:33:09;;;;;;;56.00;25.98;;;;;;;;;;6221091;23;20000;-96
2023/03/02 05:35:36;;;;;;;53.03;24.63;;;;;;;;;;6221331;23;20000;-91
2023/03/02 05:38:11;;;;;;;60.35;26.25;;;;;;;;;;6220829;23;20091;-93
2023/03/02 05:40:43;;;;;;;86.15;35.22;;;;;;;;;;6227401;23;20011;-94
2023/03/02 05:43:15;;;;;;;53.42;25.00;;;;;;;;;;6221228;23;20062;-95
2023/03/02 05:45:41;;;;;;;60.88;27.08;;;;;;;;;;6220156;23;20080;-95
2023/03/02 05:48:07;;;;;;;68.32;29.42;;;;;;;;;;6220834;23;20007;-95
2023/03/02 05:50:36;;;;;;;61.13;26.38;;;;;;;;;;6220480;23;20440;-96
2023/03/02 05:53:03;;;;;;;79.50;32.00;;;;;;;;;;6247911;23;20000;-96
2023/03/02 05:55:32;;;;;;;76.22;31.35;;;;;;;;;;6222784;23;20008;-93
2023/03/02 05:57:58;;;;;;;71.97;30.90;;;;;;;;;;6222948;23;20067;-95
2023/03/02 06:00:24;;;;;;;77.95;35.38;;;;;;;;;;6222664;23;20000;-95
2023/03/02 06:02:56;;;;;;;71.00;32.33;;;;;;;;;;6194210;23;20036;-93
2023/03/02 06:05:23;;;;;;;91.72;36.10;;;;;;;;;;6239306;23;20020;-95
2023/03/02 06:07:55;;;;;;;116.07;42.92;;;;;;;;;;6209714;23;20032;-95
2023/03/02 06:14:00;;;;;;;83.60;33.20;;;;;;;;;;6189624;23;20075;-94
2023/03/02 06:16:26;;;;;;;71.35;30.80;;;;;;;;;;6164219;23;20009;-95
2023/03/02 06:18:52;;;;;;;75.38;32.42;;;;;;;;;;6186773;23;20016;-94
2023/03/02 06:21:18;;;;;;;69.10;30.67;;;;;;;;;;6186107;23;19997;-92
2023/03/02 06:23:44;;;;;;;67.78;29.30;;;;;;;;;;6185107;23;20005;-92
2023/03/02 06:26:13;;;;;;;61.30;29.58;;;;;;;;;;6185609;23;20005;-95
2023/03/02 06:31:47;;;;;;;65.05;29.65;;;;;;;;;;6189505;23;20054;-94
2023/03/02 06:37:16;;;;;;;63.25;27.45;;;;;;;;;;6187298;23;20048;-93
2023/03/02 06:39:43;;;;;;;72.70;29.85;;;;;;;;;;6183891;23;20012;-94
2023/03/02 06:42:09;;;;;;;61.17;32.40;;;;;;;;;;6185466;23;20005;-96
2023/03/02 06:47:32;;;;;;;53.05;32.25;;;;;;;;;;6176850;23;20044;-96
2023/03/02 06:50:01;;;;;;;59.30;36.67;;;;;;;;;;6199790;23;20073;-96
2023/03/02 06:52:30;;;;;;;55.47;31.73;;;;;;;;;;6189586;23;20021;-96
2023/03/02 06:55:00;;;;;;;48.33;29.08;;;;;;;;;;6195263;23;20012;-96
2023/03/02 06:57:37;;;;;;;51.60;29.70;;;;;;;;;;6174154;23;20013;-96
2023/03/02 07:00:24;;;;;;;48.15;26.98;;;;;;;;;;6196746;23;20373;-96
2023/03/02 07:03:34;;;;;;;;;;;;;;;;;;;;;
2023/03/02 07:22:15;;;;;;;;;;;;;;;;;;;;;
2023/03/02 12:02:21;;;;;;;12.25;9.40;;;;;;;;;;6170133;23;20029;31
2023/03/02 12:14:44;;;;;;;13.52;9.00;;;;;;;;;;6166324;23;20443;-96
2023/03/02 12:17:30;;;;;;;12.57;9.45;;;;;;;;;;6157730;23;20139;-96
2023/03/02 12:29:23;;;;;;;13.40;10.52;;;;;;;;;;6186815;23;20016;-94
2023/03/02 12:31:51;;;;;;;13.07;9.50;;;;;;;;;;6160612;23;20001;-93
2023/03/02 12:34:26;;;;;;;13.43;9.23;;;;;;;;;;6184335;23;20009;-94
2023/03/02 12:43:00;;;;;;;15.00;10.02;;;;;;;;;;6217005;23;20019;-96
2023/03/02 12:49:14;;;;;;;11.70;9.27;;;;;;;;;;6137756;23;20077;-92
2023/03/02 12:52:05;;;;;;;15.30;9.85;;;;;;;;;;6190213;23;20011;-96
2023/03/02 12:54:42;;;;;;;12.45;9.82;;;;;;;;;;6216532;23;20005;-95
2023/03/02 13:03:05;;;;;;;15.68;10.57;;;;;;;;;;6181796;23;20003;-92
2023/03/02 13:17:59;;;;;;;21.52;12.20;;;;;;;;;;6232376;23;20030;-96
2023/03/02 13:26:40;;;;;;;14.57;11.80;;;;;;;;;;6198859;23;20024;31
2023/03/02 13:35:24;;;;;;;17.02;11.68;;;;;;;;;;6190476;23;19925;-96
2023/03/02 13:41:02;;;;;;;15.20;11.27;;;;;;;;;;6170009;23;20396;-96
2023/03/02 13:44:05;;;;;;;16.05;11.20;;;;;;;;;;6137156;23;20006;-96
2023/03/02 13:47:00;;;;;;;15.10;11.93;;;;;;;;;;6140287;23;20026;-96
2023/03/02 13:49:52;;;;;;;17.30;12.23;;;;;;;;;;6143769;23;20152;-92
2023/03/02 14:00:34;;;;;;;17.02;12.25;;;;;;;;;;6174813;23;20061;-96
2023/03/02 14:03:03;;;;;;;18.20;12.20;;;;;;;;;;6146208;23;20039;-91
2023/03/02 15:40:54;;;;;;;12.93;9.07;;;;;;;;;;6171521;23;20023;-92
2023/03/02 15:49:35;;;;;;;16.33;9.80;;;;;;;;;;6194993;23;20015;31
2023/03/02 16:25:01;;;;;;;37.47;17.67;;;;;;;;;;6183338;23;20092;-96
2023/03/02 16:35:23;;;;;;;37.95;16.13;;;;;;;;;;6175776;23;20805;-96
2023/03/02 16:37:52;;;;;;;19.85;10.63;;;;;;;;;;6120936;23;20017;-96
2023/03/02 16:40:55;;;;;;;19.95;11.93;;;;;;;;;;6143903;23;20076;-96
2023/03/02 17:58:23;;;;;;;29.73;15.00;;;;;;;;;;6228705;22;20511;-90
2023/03/02 18:17:37;;;;;;;30.42;14.18;;;;;;;;;;6252432;22;20054;-95
2023/03/02 18:25:16;;;;;;;30.23;13.95;;;;;;;;;;6215473;22;20029;-95
2023/03/02 18:27:42;;;;;;;30.75;14.88;;;;;;;;;;6215687;22;20031;-95
2023/03/02 18:39:32;;;;;;;26.60;13.82;;;;;;;;;;6268583;22;20472;-93
2023/03/02 19:06:30;;;;;;;32.03;16.45;;;;;;;;;;6266529;22;20015;-94
2023/03/02 19:25:05;;;;;;;36.03;18.08;;;;;;;;;;6211703;22;20016;-96
2023/03/02 19:47:07;;;;;;;29.58;15.27;;;;;;;;;;6242550;22;20084;-93
2023/03/02 19:52:16;;;;;;;26.38;13.38;;;;;;;;;;6208033;22;20109;-91
2023/03/02 19:54:44;;;;;;;25.98;13.27;;;;;;;;;;6206805;22;20016;-93
2023/03/02 20:11:45;;;;;;;32.03;14.80;;;;;;;;;;6202025;22;20978;31
2023/03/02 20:14:30;;;;;;;27.52;13.43;;;;;;;;;;6171718;23;20056;-95
2023/03/02 20:16:56;;;;;;;31.35;14.63;;;;;;;;;;6172884;23;20378;-89
2023/03/02 20:19:48;;;;;;;29.08;14.57;;;;;;;;;;6171357;23;20020;-96
2023/03/02 20:30:19;;;;;;;31.92;16.38;;;;;;;;;;6242099;22;20104;-95
2023/03/02 20:32:45;;;;;;;31.48;16.55;;;;;;;;;;6188496;23;20004;-91
2023/03/02 20:59:02;;;;;;;43.55;21.00;;;;;;;;;;6215174;22;20017;-96
2023/03/02 21:14:33;;;;;;;43.53;20.10;;;;;;;;;;6238948;23;20062;-90
2023/03/02 21:17:24;;;;;;;45.40;20.08;;;;;;;;;;6261484;22;20012;-90
2023/03/02 21:23:02;;;;;;;53.38;25.02;;;;;;;;;;6158650;23;20106;-94
2023/03/02 21:25:43;;;;;;;63.67;26.98;;;;;;;;;;6166167;23;20001;-96
2023/03/02 21:31:20;;;;;;;45.45;20.23;;;;;;;;;;6195069;23;20028;-96
2023/03/02 21:33:52;;;;;;;42.53;21.23;;;;;;;;;;6167592;23;20000;-90
2023/03/02 21:36:25;;;;;;;35.47;17.75;;;;;;;;;;6166468;23;20017;-90
2023/03/02 21:38:52;;;;;;;45.35;21.10;;;;;;;;;;6197137;23;19989;-89
2023/03/02 21:41:18;;;;;;;53.42;23.90;;;;;;;;;;6168733;23;20009;-90
2023/03/02 21:44:01;;;;;;;53.75;24.60;;;;;;;;;;6167164;23;20005;-96
2023/03/02 21:46:49;;;;;;;49.17;23.77;;;;;;;;;;6191867;23;20009;-96
2023/03/02 21:57:00;;;;;;;52.95;24.30;;;;;;;;;;6237242;22;19915;-91
2023/03/02 22:02:32;;;;;;;43.13;22.17;;;;;;;;;;6293952;22;20037;-90
2023/03/02 22:13:37;;;;;;;39.55;19.25;;;;;;;;;;6209209;22;20031;-93
2023/03/02 22:23:56;;;;;;;39.40;18.85;;;;;;;;;;6253051;22;20028;-90
2023/03/02 22:34:39;;;;;;;56.90;26.35;;;;;;;;;;6220836;22;20015;-92
2023/03/02 22:48:10;;;;;;;66.60;30.52;;;;;;;;;;6267524;22;20122;-96
2023/03/02 22:50:36;;;;;;;74.28;32.80;;;;;;;;;;6265777;22;20035;-92
2023/03/02 22:53:12;;;;;;;71.10;32.30;;;;;;;;;;6261920;23;20004;-96
2023/03/02 22:55:41;;;;;;;65.05;30.27;;;;;;;;;;6254793;22;20273;-90
2023/03/02 22:58:35;;;;;;;71.18;30.85;;;;;;;;;;6258089;23;20066;-96
2023/03/02 23:01:37;;;;;;;74.05;32.95;;;;;;;;;;6260651;23;20027;-96
2023/03/02 23:10:47;;;;;;;95.82;38.80;;;;;;;;;;6144556;23;20012;-96
2023/03/02 23:18:52;;;;;;;76.88;35.42;;;;;;;;;;6242221;22;20394;-91
2023/03/02 23:42:42;;;;;;;58.28;23.58;;;;;;;;;;6260758;22;20042;-90
2023/03/02 23:45:56;;;;;;;;;;;;;;;;;;;;;
